WZZ86BJ ENZV-EPGD
Flight info
| Callsign | WZZ86BJ |
|---|---|
| Flight time | N/A |
| Altitude | 35000 |
| Route | PEVEB DCT UBEDA DCT TOPLA DCT PENOR N133 DOMAG T240 OGDAV |
| Aircraft | A321/M-SDE3FGHIRWY/LB1 |
Departure
| Time | N/A |
|---|---|
| Airport | Stavanger Airport, Sola (ENZV) |
Arrival
| Time | 2026-05-05 15:31 |
|---|---|
| Airport | Gdańsk Lech Wałęsa Airport (EPGD) |
| Time | Latitude | Longitude | Altitude | Speed | Heading |
|---|---|---|---|---|---|
| 2026-05-05 14:26 | 58.39836 | 8.26471 | 30847 ft | 513 kts | 123° |
| 2026-05-05 14:26 | 58.38139 | 8.32450 | 31203 ft | 512 kts | 123° |
| 2026-05-05 14:26 | 58.36440 | 8.38421 | 31554 ft | 511 kts | 123° |
| 2026-05-05 14:26 | 58.34747 | 8.44370 | 31898 ft | 511 kts | 123° |
| 2026-05-05 14:27 | 58.33051 | 8.50318 | 32239 ft | 510 kts | 123° |
| 2026-05-05 14:27 | 58.31356 | 8.56248 | 32590 ft | 509 kts | 123° |
| 2026-05-05 14:27 | 58.29660 | 8.62163 | 32928 ft | 508 kts | 124° |
| 2026-05-05 14:27 | 58.27959 | 8.68054 | 33270 ft | 508 kts | 124° |
| 2026-05-05 14:28 | 58.26277 | 8.73858 | 33610 ft | 506 kts | 124° |
| 2026-05-05 14:28 | 58.24579 | 8.79705 | 33946 ft | 505 kts | 124° |
| 2026-05-05 14:28 | 58.22880 | 8.85548 | 34222 ft | 504 kts | 124° |
| 2026-05-05 14:28 | 58.21186 | 8.91368 | 34495 ft | 503 kts | 124° |
| 2026-05-05 14:29 | 58.19491 | 8.97178 | 34759 ft | 503 kts | 124° |
| 2026-05-05 14:29 | 58.17796 | 9.02973 | 34916 ft | 503 kts | 124° |
| 2026-05-05 14:29 | 58.14409 | 9.14508 | 34926 ft | 499 kts | 124° |
| 2026-05-05 14:30 | 58.11018 | 9.25976 | 34953 ft | 499 kts | 124° |
| 2026-05-05 14:30 | 58.07625 | 9.37405 | 34968 ft | 498 kts | 124° |
| 2026-05-05 14:31 | 58.04223 | 9.48805 | 34967 ft | 498 kts | 124° |
| 2026-05-05 14:31 | 58.00813 | 9.60183 | 34972 ft | 498 kts | 124° |
| 2026-05-05 14:32 | 57.97386 | 9.71555 | 34979 ft | 498 kts | 124° |
| 2026-05-05 14:32 | 57.93950 | 9.82907 | 34977 ft | 498 kts | 124° |
| 2026-05-05 14:33 | 57.90502 | 9.94226 | 34983 ft | 499 kts | 125° |
| 2026-05-05 14:33 | 57.87066 | 10.05461 | 34989 ft | 499 kts | 125° |
| 2026-05-05 14:34 | 57.83601 | 10.16758 | 34993 ft | 499 kts | 125° |
| 2026-05-05 14:34 | 57.80131 | 10.28022 | 34994 ft | 499 kts | 125° |
| 2026-05-05 14:35 | 57.76646 | 10.39264 | 34940 ft | 496 kts | 125° |
| 2026-05-05 14:35 | 57.73181 | 10.50374 | 34983 ft | 493 kts | 125° |
| 2026-05-05 14:36 | 57.69713 | 10.61443 | 34995 ft | 493 kts | 126° |
| 2026-05-05 14:36 | 57.66239 | 10.72484 | 34998 ft | 492 kts | 126° |
| 2026-05-05 14:37 | 57.62785 | 10.83423 | 34997 ft | 492 kts | 126° |
| 2026-05-05 14:37 | 57.59300 | 10.94418 | 34987 ft | 492 kts | 126° |
| 2026-05-05 14:38 | 57.55800 | 11.05384 | 34991 ft | 492 kts | 126° |
| 2026-05-05 14:38 | 57.52288 | 11.16325 | 34994 ft | 492 kts | 126° |
| 2026-05-05 14:39 | 57.49368 | 11.25411 | 34996 ft | 492 kts | 126° |
| 2026-05-05 14:39 | 57.45850 | 11.36311 | 34997 ft | 492 kts | 126° |
| 2026-05-05 14:40 | 57.42317 | 11.47186 | 34999 ft | 492 kts | 126° |
| 2026-05-05 14:40 | 57.38777 | 11.58051 | 34956 ft | 491 kts | 126° |
| 2026-05-05 14:41 | 57.35236 | 11.68872 | 34981 ft | 491 kts | 126° |
| 2026-05-05 14:41 | 57.31686 | 11.79653 | 34991 ft | 490 kts | 126° |
| 2026-05-05 14:42 | 57.28116 | 11.90431 | 34995 ft | 490 kts | 127° |
| 2026-05-05 14:42 | 57.24550 | 12.01164 | 34987 ft | 490 kts | 127° |
| 2026-05-05 14:43 | 57.20978 | 12.11878 | 34994 ft | 489 kts | 127° |
| 2026-05-05 14:43 | 57.17402 | 12.22551 | 34991 ft | 489 kts | 127° |
| 2026-05-05 14:44 | 57.13819 | 12.33208 | 34994 ft | 489 kts | 127° |
| 2026-05-05 14:44 | 57.10444 | 12.44118 | 34988 ft | 492 kts | 122° |
| 2026-05-05 14:45 | 57.07413 | 12.55410 | 34976 ft | 492 kts | 120° |
| 2026-05-05 14:45 | 57.04407 | 12.66620 | 34984 ft | 491 kts | 121° |
| 2026-05-05 14:46 | 57.01266 | 12.77736 | 34981 ft | 490 kts | 122° |
| 2026-05-05 14:46 | 56.98064 | 12.88765 | 34948 ft | 489 kts | 122° |
| 2026-05-05 14:47 | 56.94876 | 12.99773 | 34974 ft | 488 kts | 122° |
| 2026-05-05 14:47 | 56.91713 | 13.10765 | 34963 ft | 487 kts | 122° |
| 2026-05-05 14:48 | 56.88557 | 13.21708 | 34972 ft | 486 kts | 122° |
| 2026-05-05 14:48 | 56.85376 | 13.32643 | 34948 ft | 485 kts | 122° |
| 2026-05-05 14:49 | 56.82193 | 13.43514 | 34947 ft | 485 kts | 122° |
| 2026-05-05 14:49 | 56.79003 | 13.54371 | 34938 ft | 485 kts | 122° |
| 2026-05-05 14:50 | 56.75807 | 13.65206 | 34937 ft | 485 kts | 122° |
| 2026-05-05 14:50 | 56.72600 | 13.76025 | 34938 ft | 484 kts | 123° |
| 2026-05-05 14:51 | 56.69379 | 13.86803 | 34930 ft | 484 kts | 123° |
| 2026-05-05 14:51 | 56.66153 | 13.97571 | 34929 ft | 484 kts | 123° |
| 2026-05-05 14:52 | 56.62933 | 14.08305 | 34911 ft | 484 kts | 123° |
| 2026-05-05 14:52 | 56.59701 | 14.19014 | 34923 ft | 483 kts | 123° |
| 2026-05-05 14:53 | 56.56464 | 14.29662 | 34912 ft | 482 kts | 123° |
| 2026-05-05 14:53 | 56.53240 | 14.40239 | 34902 ft | 481 kts | 123° |
| 2026-05-05 14:54 | 56.50000 | 14.50821 | 34909 ft | 480 kts | 123° |
| 2026-05-05 14:54 | 56.46755 | 14.61371 | 34903 ft | 479 kts | 123° |
| 2026-05-05 14:55 | 56.43511 | 14.71886 | 34907 ft | 479 kts | 123° |
| 2026-05-05 14:55 | 56.40247 | 14.82400 | 34908 ft | 478 kts | 123° |
| 2026-05-05 14:56 | 56.36990 | 14.92856 | 34909 ft | 478 kts | 123° |
| 2026-05-05 14:56 | 56.33724 | 15.03305 | 34909 ft | 478 kts | 123° |
| 2026-05-05 14:57 | 56.30436 | 15.13719 | 34904 ft | 477 kts | 123° |
| 2026-05-05 14:57 | 56.27153 | 15.24099 | 34910 ft | 476 kts | 123° |
| 2026-05-05 14:58 | 56.23776 | 15.34220 | 34862 ft | 470 kts | 133° |
| 2026-05-05 14:58 | 56.21649 | 15.38598 | 34574 ft | 463 kts | 136° |
| 2026-05-05 14:58 | 56.19487 | 15.42851 | 34287 ft | 459 kts | 137° |
| 2026-05-05 14:59 | 56.17323 | 15.47052 | 33969 ft | 456 kts | 137° |
| 2026-05-05 14:59 | 56.15170 | 15.51200 | 33594 ft | 453 kts | 137° |
| 2026-05-05 14:59 | 56.13027 | 15.55332 | 33204 ft | 450 kts | 137° |
| 2026-05-05 14:59 | 56.10908 | 15.59424 | 32792 ft | 445 kts | 137° |
| 2026-05-05 15:00 | 56.08814 | 15.63475 | 32419 ft | 441 kts | 137° |
| 2026-05-05 15:00 | 56.07410 | 15.66193 | 32168 ft | 439 kts | 137° |
| 2026-05-05 15:00 | 56.04679 | 15.71476 | 31685 ft | 435 kts | 137° |
| 2026-05-05 15:00 | 56.02625 | 15.75430 | 31331 ft | 433 kts | 138° |
| 2026-05-05 15:01 | 56.00577 | 15.79354 | 30973 ft | 430 kts | 138° |
| 2026-05-05 15:01 | 55.98511 | 15.83300 | 30617 ft | 428 kts | 138° |
| 2026-05-05 15:01 | 55.96509 | 15.87124 | 30281 ft | 426 kts | 138° |
| 2026-05-05 15:01 | 55.94490 | 15.90978 | 29929 ft | 424 kts | 138° |
| 2026-05-05 15:02 | 55.92485 | 15.94804 | 29530 ft | 421 kts | 138° |
| 2026-05-05 15:02 | 55.90486 | 15.98617 | 29135 ft | 419 kts | 138° |
| 2026-05-05 15:02 | 55.88502 | 16.02398 | 28708 ft | 415 kts | 139° |
| 2026-05-05 15:02 | 55.86540 | 16.06132 | 28329 ft | 411 kts | 139° |
| 2026-05-05 15:03 | 55.84587 | 16.09842 | 27945 ft | 409 kts | 139° |
| 2026-05-05 15:03 | 55.82652 | 16.13517 | 27561 ft | 406 kts | 139° |
| 2026-05-05 15:03 | 55.80722 | 16.17168 | 27194 ft | 404 kts | 140° |
| 2026-05-05 15:03 | 55.78801 | 16.20791 | 26911 ft | 401 kts | 140° |
| 2026-05-05 15:04 | 55.76888 | 16.24386 | 26909 ft | 401 kts | 140° |
| 2026-05-05 15:04 | 55.74968 | 16.27986 | 26899 ft | 402 kts | 139° |
| 2026-05-05 15:04 | 55.73045 | 16.31594 | 26909 ft | 402 kts | 139° |
| 2026-05-05 15:04 | 55.71126 | 16.35203 | 26859 ft | 403 kts | 139° |
| 2026-05-05 15:05 | 55.67293 | 16.42397 | 26238 ft | 399 kts | 139° |
| 2026-05-05 15:05 | 55.65388 | 16.45959 | 25927 ft | 397 kts | 140° |
| 2026-05-05 15:05 | 55.63492 | 16.49496 | 25633 ft | 395 kts | 140° |
| 2026-05-05 15:06 | 55.61599 | 16.53022 | 25331 ft | 394 kts | 140° |
| 2026-05-05 15:06 | 55.59718 | 16.56517 | 25035 ft | 392 kts | 140° |
| 2026-05-05 15:06 | 55.57840 | 16.60000 | 24736 ft | 390 kts | 140° |
| 2026-05-05 15:06 | 55.55968 | 16.63463 | 24456 ft | 389 kts | 140° |
| 2026-05-05 15:07 | 55.54105 | 16.66909 | 24177 ft | 387 kts | 140° |
| 2026-05-05 15:07 | 55.52251 | 16.70338 | 23886 ft | 385 kts | 140° |
| 2026-05-05 15:07 | 55.50402 | 16.73757 | 23607 ft | 384 kts | 140° |
| 2026-05-05 15:07 | 55.48560 | 16.77159 | 23297 ft | 382 kts | 140° |
| 2026-05-05 15:08 | 55.46723 | 16.80539 | 22969 ft | 381 kts | 140° |
| 2026-05-05 15:08 | 55.44895 | 16.83896 | 22632 ft | 379 kts | 140° |
| 2026-05-05 15:08 | 55.43074 | 16.87231 | 22308 ft | 377 kts | 140° |
| 2026-05-05 15:08 | 55.41266 | 16.90547 | 21994 ft | 373 kts | 140° |
| 2026-05-05 15:09 | 55.39472 | 16.93837 | 21638 ft | 371 kts | 140° |
| 2026-05-05 15:09 | 55.37709 | 16.97061 | 21330 ft | 369 kts | 140° |
| 2026-05-05 15:09 | 55.35931 | 17.00303 | 21018 ft | 368 kts | 140° |
| 2026-05-05 15:09 | 55.34160 | 17.03531 | 20711 ft | 366 kts | 140° |
| 2026-05-05 15:10 | 55.32373 | 17.06778 | 20397 ft | 364 kts | 140° |
| 2026-05-05 15:10 | 55.30639 | 17.09927 | 20112 ft | 362 kts | 140° |
| 2026-05-05 15:10 | 55.28892 | 17.13099 | 19827 ft | 361 kts | 140° |
| 2026-05-05 15:10 | 55.27150 | 17.16258 | 19520 ft | 359 kts | 140° |
| 2026-05-05 15:11 | 55.25420 | 17.19400 | 19230 ft | 357 kts | 140° |
| 2026-05-05 15:11 | 55.23695 | 17.22523 | 18939 ft | 356 kts | 140° |
| 2026-05-05 15:11 | 55.21975 | 17.25630 | 18652 ft | 354 kts | 140° |
| 2026-05-05 15:11 | 55.20260 | 17.28723 | 18362 ft | 353 kts | 140° |
| 2026-05-05 15:12 | 55.18552 | 17.31796 | 18060 ft | 351 kts | 140° |
| 2026-05-05 15:12 | 55.16856 | 17.34842 | 17736 ft | 349 kts | 140° |
| 2026-05-05 15:12 | 55.15165 | 17.37874 | 17410 ft | 347 kts | 140° |
| 2026-05-05 15:12 | 55.13483 | 17.40890 | 17092 ft | 346 kts | 140° |
| 2026-05-05 15:13 | 55.11806 | 17.43893 | 16777 ft | 344 kts | 140° |
| 2026-05-05 15:13 | 55.10137 | 17.46882 | 16465 ft | 343 kts | 140° |
| 2026-05-05 15:13 | 55.08471 | 17.49860 | 16148 ft | 342 kts | 139° |
| 2026-05-05 15:13 | 55.06810 | 17.52826 | 15851 ft | 340 kts | 139° |
| 2026-05-05 15:14 | 55.05157 | 17.55777 | 15559 ft | 339 kts | 139° |
| 2026-05-05 15:14 | 55.03509 | 17.58712 | 15248 ft | 338 kts | 139° |
| 2026-05-05 15:14 | 55.01862 | 17.61631 | 14944 ft | 336 kts | 139° |
| 2026-05-05 15:14 | 55.00226 | 17.64524 | 14647 ft | 334 kts | 139° |
| 2026-05-05 15:15 | 54.98600 | 17.67401 | 14357 ft | 333 kts | 139° |
| 2026-05-05 15:15 | 54.96979 | 17.70270 | 14060 ft | 331 kts | 139° |
| 2026-05-05 15:15 | 54.95385 | 17.73092 | 13774 ft | 330 kts | 139° |
| 2026-05-05 15:15 | 54.93777 | 17.75937 | 13465 ft | 329 kts | 139° |
| 2026-05-05 15:16 | 54.92176 | 17.78770 | 13141 ft | 327 kts | 139° |
| 2026-05-05 15:16 | 54.90580 | 17.81588 | 12823 ft | 326 kts | 139° |
| 2026-05-05 15:16 | 54.88995 | 17.84380 | 12505 ft | 324 kts | 139° |
| 2026-05-05 15:16 | 54.87410 | 17.87159 | 12198 ft | 322 kts | 139° |
| 2026-05-05 15:17 | 54.85836 | 17.89920 | 11876 ft | 321 kts | 139° |
| 2026-05-05 15:17 | 54.84269 | 17.92668 | 11584 ft | 318 kts | 139° |
| 2026-05-05 15:17 | 54.82720 | 17.95387 | 11225 ft | 315 kts | 139° |
| 2026-05-05 15:17 | 54.81187 | 17.98074 | 10928 ft | 311 kts | 139° |
| 2026-05-05 15:18 | 54.80168 | 17.99793 | 10740 ft | 306 kts | 144° |
| 2026-05-05 15:18 | 54.78492 | 18.01969 | 10485 ft | 299 kts | 148° |
| 2026-05-05 15:18 | 54.76810 | 18.04075 | 10333 ft | 298 kts | 148° |
| 2026-05-05 15:18 | 54.75130 | 18.06179 | 10093 ft | 297 kts | 148° |
| 2026-05-05 15:19 | 54.72918 | 18.08959 | 9747 ft | 296 kts | 148° |
| 2026-05-05 15:19 | 54.71256 | 18.11046 | 9454 ft | 294 kts | 148° |
| 2026-05-05 15:19 | 54.70140 | 18.12444 | 9271 ft | 293 kts | 148° |
| 2026-05-05 15:19 | 54.68496 | 18.14503 | 9003 ft | 291 kts | 148° |
| 2026-05-05 15:20 | 54.66884 | 18.16598 | 8745 ft | 291 kts | 142° |
| 2026-05-05 15:20 | 54.65433 | 18.19050 | 8476 ft | 291 kts | 139° |
| 2026-05-05 15:20 | 54.64003 | 18.21506 | 8191 ft | 289 kts | 139° |
| 2026-05-05 15:20 | 54.62528 | 18.23844 | 7913 ft | 284 kts | 149° |
| 2026-05-05 15:21 | 54.60777 | 18.25266 | 7647 ft | 276 kts | 169° |
| 2026-05-05 15:21 | 54.58904 | 18.25562 | 7377 ft | 269 kts | 188° |
| 2026-05-05 15:21 | 54.57121 | 18.24788 | 7129 ft | 260 kts | 206° |
| 2026-05-05 15:21 | 54.55492 | 18.23572 | 7009 ft | 250 kts | 208° |
| 2026-05-05 15:22 | 54.54202 | 18.21803 | 6894 ft | 235 kts | 237° |
| 2026-05-05 15:22 | 54.53710 | 18.19227 | 6714 ft | 228 kts | 269° |
| 2026-05-05 15:22 | 54.54103 | 18.16579 | 6539 ft | 232 kts | 291° |
| 2026-05-05 15:22 | 54.54748 | 18.14025 | 6316 ft | 232 kts | 290° |
| 2026-05-05 15:23 | 54.55244 | 18.11419 | 6117 ft | 223 kts | 272° |
| 2026-05-05 15:23 | 54.54959 | 18.08881 | 5948 ft | 216 kts | 242° |
| 2026-05-05 15:23 | 54.53968 | 18.07066 | 5774 ft | 204 kts | 213° |
| 2026-05-05 15:23 | 54.52704 | 18.06104 | 5560 ft | 193 kts | 205° |
| 2026-05-05 15:24 | 54.51518 | 18.05267 | 5414 ft | 174 kts | 205° |
| 2026-05-05 15:24 | 54.50453 | 18.04527 | 5230 ft | 158 kts | 202° |
| 2026-05-05 15:24 | 54.49374 | 18.04337 | 5081 ft | 158 kts | 176° |
| 2026-05-05 15:24 | 54.48338 | 18.04997 | 4939 ft | 162 kts | 149° |
| 2026-05-05 15:25 | 54.47576 | 18.06435 | 4752 ft | 166 kts | 119° |
| 2026-05-05 15:25 | 54.47130 | 18.08260 | 4584 ft | 166 kts | 113° |
| 2026-05-05 15:25 | 54.46690 | 18.10087 | 4411 ft | 165 kts | 113° |
| 2026-05-05 15:25 | 54.46253 | 18.11879 | 4240 ft | 164 kts | 113° |
| 2026-05-05 15:26 | 54.45816 | 18.13676 | 4068 ft | 162 kts | 113° |
| 2026-05-05 15:26 | 54.45382 | 18.15458 | 3898 ft | 161 kts | 113° |
| 2026-05-05 15:26 | 54.44951 | 18.17229 | 3728 ft | 160 kts | 113° |
| 2026-05-05 15:26 | 54.44523 | 18.18994 | 3576 ft | 160 kts | 113° |
| 2026-05-05 15:27 | 54.44095 | 18.20754 | 3420 ft | 159 kts | 113° |
| 2026-05-05 15:27 | 54.43668 | 18.22505 | 3266 ft | 159 kts | 113° |
| 2026-05-05 15:27 | 54.43243 | 18.24252 | 3115 ft | 158 kts | 113° |
| 2026-05-05 15:27 | 54.42819 | 18.25995 | 2954 ft | 158 kts | 113° |
| 2026-05-05 15:28 | 54.42397 | 18.27729 | 2808 ft | 157 kts | 114° |
| 2026-05-05 15:28 | 54.41975 | 18.29456 | 2638 ft | 157 kts | 114° |
| 2026-05-05 15:28 | 54.41554 | 18.31174 | 2491 ft | 155 kts | 113° |
| 2026-05-05 15:28 | 54.41135 | 18.32883 | 2235 ft | 155 kts | 113° |
| 2026-05-05 15:29 | 54.40723 | 18.34565 | 2053 ft | 152 kts | 113° |
| 2026-05-05 15:29 | 54.40314 | 18.36220 | 1831 ft | 152 kts | 112° |
| 2026-05-05 15:29 | 54.39894 | 18.37878 | 1560 ft | 150 kts | 113° |
| 2026-05-05 15:29 | 54.39467 | 18.39502 | 1299 ft | 148 kts | 112° |
| 2026-05-05 15:30 | 54.39088 | 18.41130 | 1052 ft | 145 kts | 108° |
| 2026-05-05 15:30 | 54.38722 | 18.42731 | 827 ft | 143 kts | 112° |
| 2026-05-05 15:30 | 54.38325 | 18.44287 | 603 ft | 142 kts | 111° |
| 2026-05-05 15:30 | 54.37951 | 18.45839 | 460 ft | 136 kts | 111° |
| 2026-05-05 15:31 | 54.37633 | 18.47126 | 459 ft | 94 kts | 113° |
| 2026-05-05 15:31 | 54.37445 | 18.47881 | 467 ft | 44 kts | 113° |
| 2026-05-05 15:31 | 54.37352 | 18.48258 | 480 ft | 29 kts | 113° |
| 2026-05-05 15:31 | 54.37295 | 18.48507 | 489 ft | 15 kts | 97° |
| 2026-05-05 15:32 | 54.37341 | 18.48617 | 486 ft | 0 kts | 22° |
| 2026-05-05 15:32 | 54.37343 | 18.48618 | 485 ft | 2 kts | 22° |
| 2026-05-05 15:32 | 54.37398 | 18.48654 | 491 ft | 12 kts | 12° |
| 2026-05-05 15:33 | 54.37451 | 18.48581 | 486 ft | 11 kts | 292° |
| 2026-05-05 15:33 | 54.37481 | 18.48456 | 478 ft | 12 kts | 293° |
| 2026-05-05 15:33 | 54.37516 | 18.48320 | 478 ft | 13 kts | 293° |
| 2026-05-05 15:33 | 54.37553 | 18.48170 | 470 ft | 14 kts | 293° |
| 2026-05-05 15:34 | 54.37591 | 18.48014 | 469 ft | 14 kts | 293° |
| 2026-05-05 15:34 | 54.37630 | 18.47859 | 469 ft | 14 kts | 293° |
| 2026-05-05 15:34 | 54.37667 | 18.47710 | 465 ft | 13 kts | 293° |
| 2026-05-05 15:34 | 54.37703 | 18.47564 | 463 ft | 13 kts | 293° |
| 2026-05-05 15:35 | 54.37745 | 18.47393 | 461 ft | 19 kts | 293° |
| 2026-05-05 15:35 | 54.37798 | 18.47177 | 460 ft | 19 kts | 292° |
| 2026-05-05 15:35 | 54.37840 | 18.47010 | 458 ft | 5 kts | 293° |
| 2026-05-05 15:35 | 54.37844 | 18.46994 | 459 ft | 0 kts | 293° |
| 2026-05-05 15:36 | 54.37847 | 18.46981 | 459 ft | 5 kts | 293° |
| 2026-05-05 15:36 | 54.37876 | 18.46866 | 459 ft | 16 kts | 292° |
| 2026-05-05 15:36 | 54.37920 | 18.46688 | 459 ft | 15 kts | 292° |
| 2026-05-05 15:36 | 54.37967 | 18.46584 | 459 ft | 9 kts | 343° |
| 2026-05-05 15:37 | 54.38018 | 18.46605 | 460 ft | 6 kts | 24° |
| 2026-05-05 15:37 | 54.38051 | 18.46619 | 460 ft | 4 kts | 348° |
| 2026-05-05 15:37 | 54.38084 | 18.46547 | 458 ft | 10 kts | 293° |
| 2026-05-05 15:37 | 54.38099 | 18.46485 | 458 ft | 4 kts | 293° |
| 2026-05-05 15:38 | 54.38109 | 18.46445 | 457 ft | 5 kts | 293° |
| 2026-05-05 15:38 | 54.38128 | 18.46429 | 460 ft | 2 kts | 2° |
| 2026-05-05 15:38 | 54.38139 | 18.46430 | 460 ft | 1 kts | 6° |
| 2026-05-05 15:38 | 54.38153 | 18.46440 | 459 ft | 1 kts | 21° |
| 2026-05-05 15:39 | 54.38157 | 18.46442 | 460 ft | 0 kts | 21° |
| 2026-05-05 15:39 | 54.38160 | 18.46444 | 460 ft | 0 kts | 21° |